createdAt,value
2022-11-08T00:02:10.539Z,43.80
2022-11-08T00:12:34.531Z,43.50
2022-11-08T00:22:43.294Z,44.50
2022-11-08T00:32:50.631Z,45.90
2022-11-08T00:42:59.423Z,46.20
2022-11-08T00:53:07.193Z,47.00
2022-11-08T01:03:21.680Z,46.10
2022-11-08T01:13:28.641Z,38.30
2022-11-08T01:23:37.957Z,38.30
2022-11-08T01:33:50.840Z,37.70
2022-11-08T01:44:01.701Z,38.70
2022-11-08T01:54:13.461Z,38.50
2022-11-08T02:04:22.565Z,38.90
2022-11-08T02:14:29.650Z,39.50
2022-11-08T02:24:39.022Z,45.30
2022-11-08T02:34:50.608Z,47.60
2022-11-08T02:44:59.422Z,47.60
2022-11-08T02:55:08.007Z,47.20
2022-11-08T03:05:17.069Z,46.60
2022-11-08T03:15:24.304Z,46.10
2022-11-08T03:25:33.415Z,48.20
2022-11-08T03:35:40.510Z,47.80
2022-11-08T03:45:49.378Z,50.00
2022-11-08T03:55:56.801Z,49.20
2022-11-08T04:06:06.501Z,48.90
2022-11-08T04:16:18.012Z,49.40
2022-11-08T04:26:27.259Z,49.40
2022-11-08T04:36:34.390Z,48.50
2022-11-08T04:46:43.854Z,48.70
2022-11-08T04:56:51.427Z,49.00
2022-11-08T05:07:00.121Z,47.30
2022-11-08T05:17:07.220Z,46.10
2022-11-08T05:27:15.907Z,44.80
2022-11-08T05:37:23.067Z,45.30
2022-11-08T05:47:31.926Z,44.50
2022-11-08T05:57:39.419Z,45.90
2022-11-08T06:07:48.278Z,45.10
2022-11-08T06:17:55.333Z,45.80
2022-11-08T06:28:05.277Z,45.00
2022-11-08T06:38:13.022Z,44.30
2022-11-08T06:48:22.116Z,43.90
2022-11-08T06:58:29.666Z,44.50
2022-11-08T07:08:38.797Z,43.70
2022-11-08T07:18:45.793Z,42.70
2022-11-08T07:28:54.591Z,43.50
2022-11-08T07:39:06.474Z,42.90
2022-11-08T07:49:15.593Z,42.50
2022-11-08T07:59:23.153Z,43.80
2022-11-08T08:09:32.004Z,45.30
2022-11-08T08:19:38.996Z,45.60
2022-11-08T08:29:47.659Z,46.40
2022-11-08T08:39:54.701Z,45.70
2022-11-08T08:50:03.561Z,45.20
2022-11-08T09:10:41.186Z,45.90
2022-11-08T09:20:48.630Z,45.10
2022-11-08T09:30:57.355Z,44.40
2022-11-08T09:41:20.424Z,44.50
2022-11-08T09:51:30.153Z,45.20
2022-11-08T10:01:39.896Z,44.60
2022-11-08T15:21:00.798Z,41.90
2022-11-08T15:31:23.619Z,42.70
2022-11-08T15:41:42.816Z,43.10
2022-11-08T15:51:51.445Z,41.80
2022-11-08T16:02:07.956Z,41.50
2022-11-08T16:12:51.361Z,41.80
2022-11-08T16:35:29.537Z,41.70
2022-11-08T16:46:03.752Z,41.10
2022-11-08T16:56:11.010Z,41.70
2022-11-08T17:06:20.775Z,41.30
2022-11-08T17:16:32.550Z,40.40
2022-11-08T17:26:42.345Z,41.80
2022-11-08T17:36:59.401Z,43.30
2022-11-08T17:47:10.523Z,43.40
2022-11-08T17:57:19.755Z,44.20
2022-11-08T18:07:31.643Z,45.10
2022-11-08T18:17:41.447Z,46.90
2022-11-08T18:38:51.148Z,45.40
2022-11-08T19:01:27.097Z,45.00
2022-11-08T19:11:40.970Z,44.90
2022-11-08T19:22:05.018Z,44.70
2022-11-08T19:32:18.624Z,44.70
2022-11-08T19:42:30.800Z,45.10
2022-11-08T19:52:38.377Z,42.30
2022-11-08T20:02:51.573Z,40.40
2022-11-08T20:12:59.222Z,41.20
2022-11-08T20:23:11.202Z,40.80
2022-11-08T20:33:18.386Z,41.30
2022-11-08T20:43:30.340Z,41.00
2022-11-08T20:53:40.076Z,40.20
2022-11-08T21:03:55.001Z,41.60
2022-11-08T21:27:40.315Z,44.30
2022-11-08T22:35:47.816Z,48.70
2022-11-08T22:46:36.088Z,48.80
2022-11-08T23:10:08.525Z,49.00
2022-11-08T23:33:34.493Z,46.20
2022-11-08T23:45:04.966Z,37.40
